createdAt,value
2017-01-11T00:00:34.459Z,4.3
2017-01-11T00:01:43.150Z,4.32
2017-01-11T00:02:51.842Z,4.36
2017-01-11T00:04:00.527Z,4.32
2017-01-11T00:05:09.216Z,4.4
2017-01-11T00:06:17.907Z,4.31
2017-01-11T00:07:26.598Z,4.32
2017-01-11T00:08:35.285Z,4.38
2017-01-11T00:09:43.978Z,4.42
2017-01-11T00:10:52.672Z,4.32
2017-01-11T00:12:01.366Z,4.34
2017-01-11T00:13:10.058Z,4.49
2017-01-11T00:14:18.754Z,4.49
2017-01-11T00:15:27.442Z,4.48
2017-01-11T00:16:36.136Z,4.42
2017-01-11T00:17:44.825Z,4.45
2017-01-11T00:18:53.519Z,4.42
2017-01-11T00:20:02.208Z,4.49
2017-01-11T00:21:10.895Z,4.49
2017-01-11T00:22:19.584Z,4.46
2017-01-11T00:23:28.279Z,4.4
2017-01-11T00:24:36.968Z,4.46
2017-01-11T00:25:45.657Z,4.42
2017-01-11T00:26:54.341Z,4.45
2017-01-11T00:28:03.030Z,4.39
2017-01-11T00:29:11.718Z,4.49
2017-01-11T00:30:20.418Z,4.43
2017-01-11T00:31:29.123Z,4.4
2017-01-11T00:32:37.824Z,4.46
2017-01-11T00:33:46.512Z,4.48
2017-01-11T00:34:55.201Z,4.42
2017-01-11T00:36:03.891Z,4.43
2017-01-11T00:37:12.580Z,4.49
2017-01-11T00:38:21.271Z,4.57
2017-01-11T00:39:29.957Z,4.56
2017-01-11T00:40:38.650Z,4.5
2017-01-11T00:41:47.338Z,4.48
2017-01-11T00:42:56.034Z,4.63
2017-01-11T00:44:04.719Z,4.49
2017-01-11T00:45:13.807Z,4.48
2017-01-11T00:46:22.497Z,4.49
2017-01-11T00:47:31.206Z,4.48
2017-01-11T00:48:40.015Z,4.5
2017-01-11T00:49:48.702Z,4.49
2017-01-11T00:50:57.397Z,4.53
2017-01-11T00:52:06.088Z,4.42
2017-01-11T00:53:14.775Z,4.5
2017-01-11T00:54:23.464Z,4.4
2017-01-11T00:55:32.157Z,4.57
2017-01-11T00:56:40.849Z,4.45
2017-01-11T00:57:49.540Z,4.46
2017-01-11T00:58:58.231Z,4.5
2017-01-11T01:00:06.920Z,4.52
2017-01-11T01:01:15.613Z,4.43
2017-01-11T01:02:24.315Z,4.5
2017-01-11T01:03:33.002Z,4.45
2017-01-11T01:04:41.689Z,4.46
2017-01-11T01:05:50.380Z,4.58
2017-01-11T01:06:59.070Z,4.53
2017-01-11T01:08:07.763Z,4.4
2017-01-11T01:09:16.480Z,4.57
2017-01-11T01:10:25.193Z,4.42
2017-01-11T01:11:33.881Z,4.42
2017-01-11T01:12:42.574Z,4.42
2017-01-11T01:13:51.274Z,4.45
2017-01-11T01:14:59.967Z,4.4
2017-01-11T01:16:08.660Z,4.43
2017-01-11T01:17:17.353Z,4.49
2017-01-11T01:18:26.042Z,4.49
2017-01-11T01:19:34.731Z,4.5
2017-01-11T01:20:43.421Z,4.52
2017-01-11T01:21:52.111Z,4.58
2017-01-11T01:23:00.797Z,4.61
2017-01-11T01:24:09.484Z,4.61
2017-01-11T01:25:18.174Z,4.58
2017-01-11T01:26:26.862Z,4.61
2017-01-11T01:27:35.558Z,4.63
2017-01-11T01:28:44.247Z,4.61
2017-01-11T01:29:52.939Z,4.58
2017-01-11T01:31:01.623Z,4.57
2017-01-11T01:32:10.314Z,4.63
2017-01-11T01:33:19.003Z,4.63
2017-01-11T01:34:27.692Z,4.49
2017-01-11T01:35:36.390Z,4.58
2017-01-11T01:36:45.086Z,4.6
2017-01-11T01:37:53.773Z,4.5
2017-01-11T01:39:02.479Z,4.53
2017-01-11T01:40:11.175Z,4.61
2017-01-11T01:41:19.863Z,4.58
2017-01-11T01:42:28.550Z,4.57
2017-01-11T01:43:37.237Z,4.66
2017-01-11T01:44:45.926Z,4.68
2017-01-11T01:45:54.613Z,4.67
2017-01-11T01:47:03.301Z,4.58
2017-01-11T01:48:11.990Z,4.61
2017-01-11T01:49:20.675Z,4.61
2017-01-11T01:50:29.361Z,4.71
2017-01-11T01:51:38.056Z,4.68
2017-01-11T01:52:46.757Z,4.75
2017-01-11T01:53:55.454Z,4.78
2017-01-11T01:55:04.148Z,4.74
2017-01-11T01:56:12.834Z,4.68
2017-01-11T01:57:21.519Z,4.57
2017-01-11T01:58:30.211Z,4.58
2017-01-11T01:59:38.901Z,4.67
2017-01-11T02:00:47.595Z,4.52
2017-01-11T02:01:56.284Z,4.61
2017-01-11T02:03:04.981Z,4.63
2017-01-11T02:04:13.669Z,4.68
2017-01-11T02:05:22.385Z,4.63
2017-01-11T02:06:31.080Z,4.7
2017-01-11T02:07:39.776Z,4.61
2017-01-11T02:08:48.492Z,4.6
2017-01-11T02:09:57.180Z,4.6
2017-01-11T02:11:05.869Z,4.52
2017-01-11T02:12:14.563Z,4.6
2017-01-11T02:13:23.254Z,4.48
2017-01-11T02:14:31.961Z,4.57
2017-01-11T02:15:40.659Z,4.49
2017-01-11T02:16:49.385Z,4.49
2017-01-11T02:17:58.079Z,4.5
2017-01-11T02:19:06.767Z,4.38
2017-01-11T02:20:15.457Z,4.49
2017-01-11T02:21:24.147Z,4.45
2017-01-11T02:22:32.836Z,4.52
2017-01-11T02:23:41.534Z,4.46
2017-01-11T02:24:50.223Z,4.6
2017-01-11T02:25:58.965Z,4.5
2017-01-11T02:27:07.654Z,4.49
2017-01-11T02:28:16.340Z,4.45
2017-01-11T02:29:25.025Z,4.43
2017-01-11T02:30:33.711Z,4.53
2017-01-11T02:31:42.404Z,4.4
2017-01-11T02:32:51.095Z,4.52
2017-01-11T02:33:59.796Z,4.48
2017-01-11T02:35:08.485Z,4.61
2017-01-11T02:36:17.177Z,4.48
2017-01-11T02:37:25.867Z,4.52
2017-01-11T02:38:34.558Z,4.52
2017-01-11T02:39:43.246Z,4.58
2017-01-11T02:40:51.953Z,4.56
2017-01-11T02:42:00.648Z,4.48
2017-01-11T02:43:09.761Z,4.49
2017-01-11T02:44:18.450Z,4.52
2017-01-11T02:45:27.142Z,4.64
2017-01-11T02:46:35.830Z,4.56
2017-01-11T02:47:44.520Z,4.5
2017-01-11T02:48:53.213Z,4.5
2017-01-11T02:50:01.900Z,4.49
2017-01-11T02:51:10.601Z,4.53
2017-01-11T02:52:19.296Z,4.58
2017-01-11T02:53:27.984Z,4.58
2017-01-11T02:54:36.668Z,4.5
2017-01-11T02:55:45.361Z,4.57
2017-01-11T02:56:54.051Z,4.61
2017-01-11T02:58:02.739Z,4.63
2017-01-11T02:59:11.428Z,4.71
2017-01-11T03:00:20.512Z,4.71
2017-01-11T03:01:29.209Z,4.71
2017-01-11T03:02:37.897Z,4.75
2017-01-11T03:03:46.589Z,4.78
2017-01-11T03:04:55.280Z,4.71
2017-01-11T03:06:03.968Z,4.68
2017-01-11T03:07:12.659Z,4.66
2017-01-11T03:08:21.344Z,4.63
2017-01-11T03:09:30.027Z,4.64
2017-01-11T03:10:38.719Z,4.68
2017-01-11T03:11:47.409Z,4.63
2017-01-11T03:12:56.097Z,4.68
2017-01-11T03:14:04.788Z,4.66
2017-01-11T03:15:13.486Z,4.67
2017-01-11T03:16:22.175Z,4.68
2017-01-11T03:17:30.867Z,4.66
2017-01-11T03:18:39.559Z,4.7
2017-01-11T03:19:48.246Z,4.74
2017-01-11T03:20:56.935Z,4.68
2017-01-11T03:22:05.633Z,4.78
2017-01-11T03:23:14.322Z,4.76
2017-01-11T03:24:23.009Z,4.79
2017-01-11T03:25:31.700Z,4.83
2017-01-11T03:26:40.388Z,4.67
2017-01-11T03:27:49.081Z,4.71
2017-01-11T03:28:57.775Z,4.7
2017-01-11T03:30:06.459Z,4.75
2017-01-11T03:31:15.147Z,4.76
2017-01-11T03:32:23.863Z,4.76
2017-01-11T03:33:32.554Z,4.82
2017-01-11T03:34:41.244Z,4.71
2017-01-11T03:35:49.933Z,4.82
2017-01-11T03:36:58.627Z,4.79
2017-01-11T03:38:07.318Z,4.71
2017-01-11T03:39:16.009Z,4.76
2017-01-11T03:40:24.697Z,4.76
2017-01-11T03:41:33.390Z,4.79
2017-01-11T03:42:42.107Z,4.71
2017-01-11T03:43:50.824Z,4.66
2017-01-11T03:44:59.515Z,4.63
2017-01-11T03:46:08.212Z,4.74
2017-01-11T03:47:16.901Z,4.67
2017-01-11T03:48:25.589Z,4.67
2017-01-11T03:49:34.274Z,4.63
2017-01-11T03:50:42.964Z,4.68
2017-01-11T03:51:51.653Z,4.67
2017-01-11T03:53:00.340Z,4.71
2017-01-11T03:54:09.051Z,4.7
2017-01-11T03:55:17.757Z,4.75
2017-01-11T03:56:26.446Z,4.79
2017-01-11T03:57:35.141Z,4.78
2017-01-11T03:58:43.835Z,4.68
2017-01-11T03:59:52.536Z,4.75
2017-01-11T04:01:01.228Z,4.67
2017-01-11T04:02:09.918Z,4.84
2017-01-11T04:03:18.608Z,4.79
2017-01-11T04:04:27.304Z,4.76
2017-01-11T04:05:35.990Z,4.7
2017-01-11T04:06:44.692Z,4.75
2017-01-11T04:07:53.387Z,4.75
2017-01-11T04:09:02.077Z,4.78
2017-01-11T04:10:10.767Z,4.71
2017-01-11T04:11:19.457Z,4.82
2017-01-11T04:12:28.148Z,4.76
2017-01-11T04:13:36.846Z,4.67
2017-01-11T04:14:45.542Z,4.74
2017-01-11T04:15:54.262Z,4.76
2017-01-11T04:17:02.951Z,4.7
2017-01-11T04:18:11.649Z,4.71
2017-01-11T04:19:20.344Z,4.71
2017-01-11T04:20:29.033Z,4.7
2017-01-11T04:21:37.721Z,4.68
2017-01-11T04:22:46.416Z,4.68
2017-01-11T04:23:55.103Z,4.64
2017-01-11T04:25:03.796Z,4.67
2017-01-11T04:26:12.487Z,4.68
2017-01-11T04:27:21.174Z,4.66
2017-01-11T04:28:29.862Z,4.7
2017-01-11T04:29:38.551Z,4.66
2017-01-11T04:30:47.247Z,4.71
2017-01-11T04:31:55.943Z,4.64
2017-01-11T04:33:04.632Z,4.6
2017-01-11T04:34:13.320Z,4.71
2017-01-11T04:35:22.012Z,4.75
2017-01-11T04:36:30.703Z,4.67
2017-01-11T04:37:39.391Z,4.64
2017-01-11T04:38:48.079Z,4.57
2017-01-11T04:39:56.775Z,4.68
2017-01-11T04:41:05.464Z,4.61
2017-01-11T04:42:14.151Z,4.58
2017-01-11T04:43:22.847Z,4.66
2017-01-11T04:44:31.535Z,4.61
2017-01-11T04:45:40.229Z,4.64
2017-01-11T04:46:48.935Z,4.53
2017-01-11T04:47:57.652Z,4.49
2017-01-11T04:49:06.341Z,4.57
2017-01-11T04:50:15.028Z,4.58
2017-01-11T04:51:23.715Z,4.5
2017-01-11T04:52:32.403Z,4.48
2017-01-11T04:53:41.094Z,4.53
2017-01-11T04:54:49.788Z,4.56
2017-01-11T04:55:58.476Z,4.58
2017-01-11T04:57:07.165Z,4.5
2017-01-11T04:58:15.857Z,4.49
2017-01-11T04:59:24.552Z,4.5
2017-01-11T05:00:33.246Z,4.5
2017-01-11T05:01:41.931Z,4.58
2017-01-11T05:02:50.617Z,4.58
2017-01-11T05:03:59.305Z,4.57
2017-01-11T05:05:08.005Z,4.49
2017-01-11T05:06:16.696Z,4.56
2017-01-11T05:07:25.385Z,4.5
2017-01-11T05:08:34.074Z,4.49
2017-01-11T05:09:42.768Z,4.5
2017-01-11T05:10:51.456Z,4.48
2017-01-11T05:12:00.146Z,4.43
2017-01-11T05:13:08.839Z,4.31
2017-01-11T05:14:17.532Z,4.42
2017-01-11T05:15:26.223Z,4.36
2017-01-11T05:16:34.909Z,4.46
2017-01-11T05:17:43.598Z,4.39
2017-01-11T05:18:52.283Z,4.3
2017-01-11T05:20:00.975Z,4.31
2017-01-11T05:21:09.671Z,4.32
2017-01-11T05:22:18.366Z,4.25
2017-01-11T05:23:27.061Z,4.27
2017-01-11T05:24:35.754Z,4.3
2017-01-11T05:25:44.445Z,4.21
2017-01-11T05:26:53.143Z,4.22
2017-01-11T05:28:01.827Z,4.14
2017-01-11T05:29:10.517Z,4.25
2017-01-11T05:30:19.212Z,4.3
2017-01-11T05:31:27.903Z,4.14
2017-01-11T05:32:36.592Z,4.07
2017-01-11T05:33:45.279Z,4.04
2017-01-11T05:34:53.964Z,4.07
2017-01-11T05:36:02.655Z,4.12
2017-01-11T05:37:11.347Z,4.09
2017-01-11T05:38:20.030Z,4.06
2017-01-11T05:39:28.722Z,4.12
2017-01-11T05:40:37.413Z,4.14
2017-01-11T05:41:46.106Z,4.14
2017-01-11T05:42:55.192Z,4.09
2017-01-11T05:44:03.879Z,4.07
2017-01-11T05:45:12.572Z,4.2
2017-01-11T05:46:21.257Z,4.27
2017-01-11T05:47:29.944Z,4.21
2017-01-11T05:48:38.634Z,4.28
2017-01-11T05:49:47.323Z,4.28
2017-01-11T05:50:56.013Z,4.2
2017-01-11T05:52:04.703Z,4.25
2017-01-11T05:53:13.393Z,4.21
2017-01-11T05:54:22.082Z,4.3
2017-01-11T05:55:30.777Z,4.28
2017-01-11T05:56:39.496Z,4.22
2017-01-11T05:57:48.583Z,4.21
2017-01-11T05:58:57.274Z,4.25
2017-01-11T06:00:05.966Z,4.2
2017-01-11T06:01:14.659Z,4.27
2017-01-11T06:02:23.348Z,4.22
2017-01-11T06:03:32.044Z,4.14
2017-01-11T06:04:40.742Z,4.3
2017-01-11T06:05:49.453Z,4.27
2017-01-11T06:06:58.144Z,4.22
2017-01-11T06:08:06.840Z,4.14
2017-01-11T06:09:15.525Z,4.16
2017-01-11T06:10:24.209Z,4.25
2017-01-11T06:11:32.901Z,4.18
2017-01-11T06:12:41.590Z,4.14
2017-01-11T06:13:50.323Z,4.18
2017-01-11T06:14:59.010Z,4.07
2017-01-11T06:16:07.706Z,4.2
2017-01-11T06:17:16.398Z,4.18
2017-01-11T06:18:25.085Z,4.16
2017-01-11T06:19:33.773Z,4.14
2017-01-11T06:20:42.461Z,4.1
2017-01-11T06:21:51.153Z,4.09
2017-01-11T06:22:59.845Z,4.06
2017-01-11T06:24:08.928Z,4.04
2017-01-11T06:25:17.617Z,4.07
2017-01-11T06:26:26.303Z,4.04
2017-01-11T06:27:35.028Z,4.07
2017-01-11T06:28:43.722Z,4.06
2017-01-11T06:29:52.433Z,4.06
2017-01-11T06:31:01.120Z,4.1
2017-01-11T06:32:09.810Z,4.02
2017-01-11T06:33:18.504Z,4.02
2017-01-11T06:34:27.589Z,4.06
2017-01-11T06:35:36.276Z,4.07
2017-01-11T06:36:44.969Z,4.04
2017-01-11T06:37:53.660Z,4.03
2017-01-11T06:39:02.356Z,4.02
2017-01-11T06:40:11.045Z,4.03
2017-01-11T06:41:19.734Z,4.06
2017-01-11T06:42:28.433Z,4.04
2017-01-11T06:43:37.121Z,4.04
2017-01-11T06:44:45.813Z,4.07
2017-01-11T06:45:54.497Z,4.03
2017-01-11T06:47:03.194Z,4.04
2017-01-11T06:48:11.889Z,4.04
2017-01-11T06:49:20.608Z,4.1
2017-01-11T06:50:29.297Z,4.1
2017-01-11T06:51:37.984Z,4.07
2017-01-11T06:52:46.673Z,4.12
2017-01-11T06:53:55.358Z,4.1
2017-01-11T06:55:04.053Z,4.1
2017-01-11T06:56:12.746Z,4.14
2017-01-11T06:57:21.437Z,4.14
2017-01-11T06:58:30.123Z,4.13
2017-01-11T06:59:38.813Z,4.12
2017-01-11T07:00:47.515Z,4.1
2017-01-11T07:01:56.208Z,4.13
2017-01-11T07:03:04.905Z,4.1
2017-01-11T07:04:13.593Z,4.21
2017-01-11T07:05:22.286Z,4.22
2017-01-11T07:06:31.056Z,4.25
2017-01-11T07:07:39.747Z,4.2
2017-01-11T07:08:48.440Z,4.22
2017-01-11T07:09:57.130Z,4.31
2017-01-11T07:11:05.826Z,4.25
2017-01-11T07:13:36.744Z,4.3
2017-01-11T07:14:45.451Z,4.31
2017-01-11T07:15:54.140Z,4.3
2017-01-11T07:17:02.838Z,4.31
2017-01-11T07:18:11.528Z,4.36
2017-01-11T07:19:20.222Z,4.34
2017-01-11T07:20:28.911Z,4.39
2017-01-11T07:21:37.607Z,4.32
2017-01-11T07:22:46.328Z,4.32
2017-01-11T07:23:55.474Z,4.36
2017-01-11T07:25:04.162Z,4.36
2017-01-11T07:26:13.251Z,4.28
2017-01-11T07:27:21.942Z,4.36
2017-01-11T07:28:30.631Z,4.31
2017-01-11T07:29:39.321Z,4.14
2017-01-11T07:30:48.010Z,4.16
2017-01-11T07:31:56.732Z,4.04
2017-01-11T07:33:05.425Z,4.12
2017-01-11T07:34:14.119Z,3.94
2017-01-11T07:35:22.805Z,3.94
2017-01-11T07:36:31.502Z,3.92
2017-01-11T07:37:40.192Z,3.91
2017-01-11T07:38:48.879Z,3.92
2017-01-11T07:39:57.571Z,3.78
2017-01-11T07:41:06.259Z,3.78
2017-01-11T07:42:14.981Z,3.77
2017-01-11T07:43:23.695Z,3.76
2017-01-11T07:44:32.405Z,3.68
2017-01-11T07:45:41.098Z,3.67
2017-01-11T07:46:49.786Z,3.73
2017-01-11T07:47:58.473Z,3.66
2017-01-11T07:49:07.171Z,3.58
2017-01-11T07:50:15.866Z,3.64
2017-01-11T07:51:24.561Z,3.63
2017-01-11T07:52:33.254Z,3.58
2017-01-11T07:53:41.975Z,3.56
2017-01-11T07:54:50.663Z,3.59
2017-01-11T07:55:59.350Z,3.56
2017-01-11T07:57:08.050Z,3.56
2017-01-11T07:58:16.743Z,3.56
2017-01-11T07:59:25.431Z,3.55
2017-01-11T08:00:34.143Z,3.5
2017-01-11T08:01:42.833Z,3.49
2017-01-11T08:02:51.524Z,3.49
2017-01-11T08:04:00.215Z,3.53
2017-01-11T08:05:08.924Z,3.45
2017-01-11T08:06:17.632Z,3.45
2017-01-11T08:07:26.322Z,3.46
2017-01-11T08:08:35.012Z,3.45
2017-01-11T08:09:43.698Z,3.45
2017-01-11T08:10:52.386Z,3.46
2017-01-11T08:12:01.077Z,3.46
2017-01-11T08:13:09.771Z,3.46
2017-01-11T08:14:18.485Z,3.46
2017-01-11T08:15:27.169Z,3.4
2017-01-11T08:16:35.852Z,3.46
2017-01-11T08:17:44.546Z,3.41
2017-01-11T08:18:53.239Z,3.36
2017-01-11T08:20:01.925Z,3.49
2017-01-11T08:21:10.652Z,3.45
2017-01-11T08:22:19.342Z,3.43
2017-01-11T08:23:28.031Z,3.43
2017-01-11T08:24:36.730Z,3.46
2017-01-11T08:25:45.452Z,3.43
2017-01-11T08:26:54.143Z,3.43
2017-01-11T08:28:02.832Z,3.48
2017-01-11T08:29:11.535Z,3.46
2017-01-11T08:30:20.226Z,3.45
2017-01-11T08:31:28.914Z,3.49
2017-01-11T08:32:37.597Z,3.49
2017-01-11T08:33:46.284Z,3.49
2017-01-11T08:34:54.981Z,3.48
2017-01-11T08:36:03.699Z,3.45
2017-01-11T08:37:12.393Z,3.48
2017-01-11T08:38:21.091Z,3.52
2017-01-11T08:39:29.781Z,3.4
2017-01-11T08:40:38.472Z,3.43
2017-01-11T08:41:47.157Z,3.46
2017-01-11T08:42:55.847Z,3.43
2017-01-11T08:44:04.943Z,3.45
2017-01-11T08:45:13.636Z,3.43
2017-01-11T08:46:22.322Z,3.41
2017-01-11T08:47:31.017Z,3.45
2017-01-11T08:48:39.704Z,3.31
2017-01-11T08:49:48.390Z,3.33
2017-01-11T08:50:57.082Z,3.36
2017-01-11T08:52:05.779Z,3.4
2017-01-11T08:53:14.468Z,3.34
2017-01-11T08:54:23.154Z,3.45
2017-01-11T08:55:31.845Z,3.3
2017-01-11T08:56:40.534Z,3.31
2017-01-11T08:57:49.231Z,3.34
2017-01-11T08:58:57.917Z,3.45
2017-01-11T09:00:06.605Z,3.4
2017-01-11T09:01:15.304Z,3.36
2017-01-11T09:02:23.995Z,3.4
2017-01-11T09:03:32.688Z,3.43
2017-01-11T09:04:41.381Z,3.41
2017-01-11T09:05:50.073Z,3.34
2017-01-11T09:06:58.790Z,3.34
2017-01-11T09:08:07.495Z,3.3
2017-01-11T09:09:16.187Z,3.34
2017-01-11T09:10:24.876Z,3.3
2017-01-11T09:11:33.964Z,3.4
2017-01-11T09:12:42.663Z,3.37
2017-01-11T09:13:51.358Z,3.33
2017-01-11T09:15:00.072Z,3.3
2017-01-11T09:16:08.763Z,3.4
2017-01-11T09:17:17.456Z,3.3
2017-01-11T09:18:26.152Z,3.18
2017-01-11T09:19:34.845Z,3.15
2017-01-11T09:20:43.929Z,3.16
2017-01-11T09:21:52.619Z,3.15
2017-01-11T09:23:01.307Z,3.21
2017-01-11T09:24:09.998Z,3.01
2017-01-11T09:25:18.692Z,3.01
2017-01-11T09:26:27.383Z,3.01
2017-01-11T09:27:36.082Z,2.91
2017-01-11T09:28:44.777Z,3
2017-01-11T09:29:53.469Z,2.94
2017-01-11T09:31:02.159Z,2.9
2017-01-11T09:32:10.850Z,2.73
2017-01-11T09:33:19.552Z,2.79
2017-01-11T09:34:28.253Z,2.76
2017-01-11T09:35:36.965Z,2.59
2017-01-11T09:36:45.655Z,2.52
2017-01-11T09:37:54.340Z,2.57
2017-01-11T09:39:03.032Z,2.4
2017-01-11T09:40:11.748Z,2.34
2017-01-11T09:41:20.440Z,2.36
2017-01-11T09:42:29.148Z,2.19
2017-01-11T09:43:37.861Z,2.22
2017-01-11T09:44:46.548Z,2.23
2017-01-11T09:45:55.242Z,2.14
2017-01-11T09:47:03.930Z,2.16
2017-01-11T09:48:12.649Z,2.18
2017-01-11T09:49:21.337Z,2.21
2017-01-11T09:50:30.026Z,2.1
2017-01-11T09:51:38.717Z,2.23
2017-01-11T09:52:47.414Z,2.22
2017-01-11T09:53:56.106Z,2.22
2017-01-11T09:55:04.793Z,2.3
2017-01-11T09:56:13.480Z,2.21
2017-01-11T09:57:22.172Z,2.22
2017-01-11T09:58:30.864Z,2.16
2017-01-11T09:59:39.556Z,2.26
2017-01-11T10:00:48.242Z,2.18
2017-01-11T10:01:56.929Z,2.19
2017-01-11T10:03:05.652Z,2.3
2017-01-11T10:04:14.735Z,2.21
2017-01-11T10:05:23.419Z,2.21
2017-01-11T10:06:32.111Z,2.22
2017-01-11T10:07:40.798Z,2.22
2017-01-11T10:08:49.487Z,2.26
2017-01-11T10:09:58.173Z,2.18
2017-01-11T10:11:06.872Z,2.16
2017-01-11T10:12:15.562Z,2.14
2017-01-11T10:13:24.247Z,2.3
2017-01-11T10:14:32.940Z,2.34
2017-01-11T10:15:41.636Z,2.39
2017-01-11T10:16:50.317Z,2.4
2017-01-11T10:17:59.006Z,2.36
2017-01-11T10:19:07.729Z,2.36
2017-01-11T10:20:16.421Z,2.36
2017-01-11T10:21:25.115Z,2.41
2017-01-11T10:22:33.806Z,2.41
2017-01-11T10:23:42.498Z,2.37
2017-01-11T10:24:51.190Z,2.4
2017-01-11T10:25:59.882Z,2.43
2017-01-11T10:27:08.569Z,2.43
2017-01-11T10:28:17.258Z,2.43
2017-01-11T10:29:25.944Z,2.34
2017-01-11T10:30:34.638Z,2.28
2017-01-11T10:31:43.336Z,2.28
2017-01-11T10:32:52.025Z,2.19
2017-01-11T10:34:00.716Z,2.23
2017-01-11T10:35:09.406Z,2.21
2017-01-11T10:36:18.091Z,2.16
2017-01-11T10:37:26.779Z,2.26
2017-01-11T10:38:35.462Z,2.26
2017-01-11T10:39:44.150Z,2.25
2017-01-11T10:40:52.844Z,2.25
2017-01-11T10:42:01.533Z,2.21
2017-01-11T10:43:10.222Z,2.14
2017-01-11T10:44:18.919Z,2.16
2017-01-11T10:45:27.613Z,2.03
2017-01-11T10:46:36.308Z,2.16
2017-01-11T10:47:44.995Z,2.16
2017-01-11T10:48:53.684Z,2.12
2017-01-11T10:50:02.373Z,2.08
2017-01-11T10:51:11.061Z,2.03
2017-01-11T10:52:19.756Z,2.05
2017-01-11T10:53:28.446Z,2.08
2017-01-11T10:54:37.134Z,2.1
2017-01-11T10:55:45.828Z,2.05
2017-01-11T10:56:54.518Z,2.04
2017-01-11T10:58:03.204Z,2.01
2017-01-11T10:59:11.895Z,2.05
2017-01-11T11:00:20.584Z,1.98
2017-01-11T11:01:29.269Z,2.03
2017-01-11T11:02:37.961Z,1.98
2017-01-11T11:03:46.647Z,2.03
2017-01-11T11:04:55.341Z,2.05
2017-01-11T11:06:04.030Z,2.05
2017-01-11T11:07:12.716Z,2.03
2017-01-11T11:08:21.438Z,2.04
2017-01-11T11:09:30.144Z,2.05
2017-01-11T11:10:38.828Z,2.04
2017-01-11T11:11:47.547Z,2.07
2017-01-11T11:12:56.240Z,1.98
2017-01-11T11:14:04.930Z,2
2017-01-11T11:15:13.612Z,2.05
2017-01-11T11:16:22.301Z,2
2017-01-11T11:17:31.011Z,2.07
2017-01-11T11:18:40.064Z,2.01
2017-01-11T11:19:48.752Z,2.15
2017-01-11T11:20:57.443Z,2.08
2017-01-11T11:22:06.127Z,2.04
2017-01-11T11:23:14.819Z,2.04
2017-01-11T11:24:23.511Z,2.1
2017-01-11T11:25:32.202Z,2.07
2017-01-11T11:26:40.895Z,2.04
2017-01-11T11:27:49.591Z,2.07
2017-01-11T11:28:58.315Z,2.04
2017-01-11T11:30:07.004Z,2.08
2017-01-11T11:31:15.696Z,2.1
2017-01-11T11:32:24.385Z,2.03
2017-01-11T11:33:33.082Z,2
2017-01-11T11:34:41.773Z,2.1
2017-01-11T11:35:50.466Z,1.97
2017-01-11T11:36:59.169Z,2.07
2017-01-11T11:38:08.264Z,2.07
2017-01-11T11:39:16.944Z,2.1
2017-01-11T11:40:25.632Z,1.97
2017-01-11T11:41:34.322Z,2.03
2017-01-11T11:42:43.013Z,2.1
2017-01-11T11:43:51.710Z,2.14
2017-01-11T11:45:00.798Z,2.1
2017-01-11T11:46:09.490Z,2.07
2017-01-11T11:47:18.578Z,2.01
2017-01-11T11:48:27.268Z,1.98
2017-01-11T11:49:35.954Z,2.04
2017-01-11T11:50:44.642Z,2.01
2017-01-11T11:51:53.329Z,2.01
2017-01-11T11:53:02.017Z,1.93
2017-01-11T11:54:10.718Z,1.98
2017-01-11T11:55:19.406Z,1.97
2017-01-11T11:56:28.096Z,1.97
2017-01-11T11:57:36.785Z,2.01
2017-01-11T11:58:45.496Z,2.04
2017-01-11T11:59:54.181Z,2
2017-01-11T12:01:02.872Z,1.98
2017-01-11T12:02:11.593Z,1.98
2017-01-11T12:03:20.277Z,2
2017-01-11T12:04:28.966Z,2.01
2017-01-11T12:05:37.654Z,1.93
2017-01-11T12:06:46.345Z,1.95
2017-01-11T12:07:55.038Z,1.95
2017-01-11T12:09:03.750Z,1.98
2017-01-11T12:10:12.441Z,2.01
2017-01-11T12:11:21.156Z,1.98
2017-01-11T12:12:29.852Z,2.01
2017-01-11T12:13:38.546Z,1.98
2017-01-11T12:14:47.238Z,2
2017-01-11T12:15:55.928Z,2.04
2017-01-11T12:17:04.615Z,2.03
2017-01-11T12:18:13.313Z,2
2017-01-11T12:19:22.006Z,2.08
2017-01-11T12:20:30.693Z,2.03
2017-01-11T12:21:39.377Z,2.07
2017-01-11T12:22:48.070Z,2.08
2017-01-11T12:23:56.759Z,2
2017-01-11T12:25:05.449Z,2.04
2017-01-11T12:26:14.136Z,2.01
2017-01-11T12:27:22.829Z,2.07
2017-01-11T12:28:31.923Z,2.05
2017-01-11T12:29:40.617Z,1.98
2017-01-11T12:30:49.308Z,2.16
2017-01-11T12:31:57.992Z,2.12
2017-01-11T12:33:06.717Z,2.07
2017-01-11T12:34:15.408Z,2.08
2017-01-11T12:35:24.096Z,2.1
2017-01-11T12:36:32.790Z,2.07
2017-01-11T12:37:41.481Z,2.04
2017-01-11T12:38:50.182Z,2.07
2017-01-11T12:39:58.871Z,2.04
2017-01-11T12:41:07.567Z,2.04
2017-01-11T12:42:16.256Z,2.1
2017-01-11T12:43:24.949Z,1.98
2017-01-11T12:44:33.646Z,2
2017-01-11T12:45:42.340Z,2.16
2017-01-11T12:46:51.037Z,2.01
2017-01-11T12:47:59.729Z,2.01
2017-01-11T12:49:08.423Z,2.03
2017-01-11T12:50:17.120Z,2.01
2017-01-11T12:51:25.809Z,2.01
2017-01-11T12:52:34.499Z,1.98
2017-01-11T12:53:43.212Z,1.95
2017-01-11T12:54:51.906Z,1.93
2017-01-11T12:56:00.601Z,1.98
2017-01-11T12:57:09.299Z,1.98
2017-01-11T12:58:17.989Z,2.07
2017-01-11T12:59:26.682Z,2.01
2017-01-11T13:00:35.370Z,1.92
2017-01-11T13:01:44.062Z,1.86
2017-01-11T13:02:52.756Z,1.88
2017-01-11T13:04:01.442Z,1.93
2017-01-11T13:05:10.147Z,1.89
2017-01-11T13:06:18.842Z,1.89
2017-01-11T13:07:27.930Z,1.85
2017-01-11T13:08:36.617Z,1.89
2017-01-11T13:09:45.306Z,1.82
2017-01-11T13:10:53.992Z,1.79
2017-01-11T13:12:02.685Z,1.86
2017-01-11T13:13:11.377Z,1.81
2017-01-11T13:14:20.079Z,1.78
2017-01-11T13:15:28.775Z,1.71
2017-01-11T13:16:37.464Z,1.75
2017-01-11T13:17:46.160Z,1.75
2017-01-11T13:18:54.850Z,1.7
2017-01-11T13:20:03.546Z,1.7
2017-01-11T13:21:12.237Z,1.67
2017-01-11T13:22:20.930Z,1.81
2017-01-11T13:23:29.624Z,1.63
2017-01-11T13:24:38.331Z,1.74
2017-01-11T13:25:47.422Z,1.71
2017-01-11T13:26:56.140Z,1.64
2017-01-11T13:28:04.865Z,1.71
2017-01-11T13:29:13.555Z,1.74
2017-01-11T13:30:22.272Z,1.63
2017-01-11T13:31:30.988Z,1.68
2017-01-11T13:32:39.685Z,1.68
2017-01-11T13:33:48.374Z,1.63
2017-01-11T13:34:57.061Z,1.67
2017-01-11T13:36:05.792Z,1.61
2017-01-11T13:37:14.487Z,1.63
2017-01-11T13:38:23.177Z,1.64
2017-01-11T13:39:31.868Z,1.68
2017-01-11T13:40:40.558Z,1.64
2017-01-11T13:41:49.251Z,1.6
2017-01-11T13:42:57.941Z,1.64
2017-01-11T13:44:06.639Z,1.63
2017-01-11T13:45:15.326Z,1.66
2017-01-11T13:46:24.020Z,1.7
2017-01-11T13:47:32.718Z,1.64
2017-01-11T13:48:41.424Z,1.58
2017-01-11T13:49:50.116Z,1.67
2017-01-11T13:50:58.841Z,1.67
2017-01-11T13:52:07.929Z,1.61
2017-01-11T13:53:16.624Z,1.76
2017-01-11T13:54:25.319Z,1.74
2017-01-11T13:55:34.011Z,1.71
2017-01-11T13:56:42.702Z,1.71
2017-01-11T13:57:51.394Z,1.71
2017-01-11T13:59:00.080Z,1.71
2017-01-11T14:00:08.775Z,1.74
2017-01-11T14:01:17.463Z,1.75
2017-01-11T14:02:26.150Z,1.84
2017-01-11T14:03:34.842Z,1.88
2017-01-11T14:04:43.530Z,1.85
2017-01-11T14:05:52.222Z,1.86
2017-01-11T14:07:00.914Z,1.79
2017-01-11T14:08:09.607Z,1.85
2017-01-11T14:09:18.298Z,1.84
2017-01-11T14:10:26.985Z,1.81
2017-01-11T14:11:35.675Z,1.82
2017-01-11T14:12:44.369Z,1.79
2017-01-11T14:13:53.060Z,1.86
2017-01-11T14:15:01.757Z,1.82
2017-01-11T14:16:10.450Z,1.84
2017-01-11T14:17:19.150Z,1.88
2017-01-11T14:18:27.846Z,1.89
2017-01-11T14:19:36.540Z,1.85
2017-01-11T14:20:45.232Z,1.89
2017-01-11T14:21:53.928Z,1.84
2017-01-11T14:23:03.017Z,1.85
2017-01-11T14:24:11.708Z,1.88
2017-01-11T14:25:20.401Z,1.82
2017-01-11T14:26:29.102Z,1.92
2017-01-11T14:27:37.791Z,1.88
2017-01-11T14:28:46.487Z,1.89
2017-01-11T14:29:55.178Z,1.93
2017-01-11T14:31:03.872Z,1.93
2017-01-11T14:32:12.573Z,1.98
2017-01-11T14:33:21.263Z,1.97
2017-01-11T14:34:29.951Z,2
2017-01-11T14:35:38.657Z,2.01
2017-01-11T14:36:47.362Z,1.97
2017-01-11T14:37:56.057Z,2.01
2017-01-11T14:39:04.800Z,2.01
2017-01-11T14:40:13.492Z,1.97
2017-01-11T14:41:22.199Z,1.92
2017-01-11T14:42:30.885Z,1.92
2017-01-11T14:43:39.581Z,1.84
2017-01-11T14:44:48.278Z,1.88
2017-01-11T14:45:56.968Z,1.95
2017-01-11T14:47:05.657Z,1.93
2017-01-11T14:48:14.343Z,1.88
2017-01-11T14:49:23.038Z,1.97
2017-01-11T14:50:31.731Z,1.98
2017-01-11T14:51:40.434Z,1.92
2017-01-11T14:52:49.134Z,1.88
2017-01-11T14:53:57.821Z,1.88
2017-01-11T14:55:06.507Z,1.95
2017-01-11T14:56:15.198Z,2
2017-01-11T14:57:23.887Z,1.86
2017-01-11T14:58:32.624Z,2.03
2017-01-11T14:59:41.318Z,1.88
2017-01-11T15:00:50.015Z,1.98
2017-01-11T15:01:58.712Z,1.97
2017-01-11T15:03:07.407Z,1.95
2017-01-11T15:04:16.098Z,2
2017-01-11T15:05:24.807Z,1.97
2017-01-11T15:06:33.495Z,2
2017-01-11T15:07:42.193Z,2.03
2017-01-11T15:08:50.890Z,1.97
2017-01-11T15:09:59.577Z,1.93
2017-01-11T15:11:08.272Z,1.98
2017-01-11T15:12:16.968Z,1.98
2017-01-11T15:13:25.673Z,1.97
2017-01-11T15:14:34.366Z,2.01
2017-01-11T15:15:43.059Z,2.01
2017-01-11T15:16:51.751Z,1.93
2017-01-11T15:18:00.439Z,2.01
2017-01-11T15:19:09.143Z,2.03
2017-01-11T15:20:17.839Z,2.05
2017-01-11T15:21:26.529Z,2.03